Current Weather

Half Moon Bay

Half Moon Bay, California (KHAF)

Report from: Friday, April 19, 2024 2:15 AM PDT
Current time: Friday, April 19, 2024 2:36 AM PDT

Nearby weather – Weather history – Daily summaries
Weather forecast

Present weatherMist
Temperature10.0°C (50.0°F)
Wind chill8.2°C (46.7°F)
Dew point10.0°C (50.0°F)
Winds 7 kts (3.6 m/s, 8.1 mph) South (180°)
Visibility5 mi. (8 km)
Clouds Ceiling: Overcast 600 ft. (183 m)
Altimeter29.98 in.Hg (1015 mB)
Relative humidity100 %
Density altitude-492 ft. (-150 m)
Remarks Fully automated report
Automated weather observing station with precipitation discriminator
Flight conditions Instrument Meteorological Conditions
Raw dataKHAF 190915Z AUTO 18007KT 5SM BR OVC006 10/10 A2998 RMK AO2
An error has occurred. This application may no longer respond until reloaded. Reload 🗙